Time;durP1;ratioP1;P1;durP2;ratioP2;P2;SDS_P1;SDS_P2;PMS_P1;PMS_P2;Temp;Humidity;BMP_temperature;BMP_pressure;BME280_temperature;BME280_humidity;BME280_pressure;Samples;Min_cycle;Max_cycle;Signal;HPM_P1;HPM_P2
2022/07/03 05:00:40;;;;;;;2.57;2.30;;;19.50;97.20;;;;;;1741078;28;20205;-66
2022/07/03 05:01:31;;;;;;;2.60;2.40;;;19.50;97.20;;;;;;1739777;28;20730;-66
2022/07/03 05:02:23;;;;;;;2.90;2.43;;;19.50;97.20;;;;;;1741221;28;20731;-66
2022/07/03 05:03:14;;;;;;;2.50;2.30;;;19.50;97.20;;;;;;1740891;28;20199;-66
2022/07/03 05:04:06;;;;;;;3.60;2.53;;;19.50;97.20;;;;;;1741186;28;20222;-66
2022/07/03 05:04:57;;;;;;;2.65;2.45;;;19.60;97.20;;;;;;1741083;28;20449;-66
2022/07/03 05:05:48;;;;;;;2.50;2.30;;;19.60;97.20;;;;;;1741131;28;20198;-66
2022/07/03 05:06:39;;;;;;;2.40;2.20;;;19.60;97.20;;;;;;1740737;28;20239;-66
2022/07/03 05:07:30;;;;;;;2.50;2.30;;;19.60;97.20;;;;;;1741149;28;20214;-66
2022/07/03 05:08:22;;;;;;;12.80;3.30;;;19.60;97.20;;;;;;1741133;28;20233;-66
2022/07/03 05:09:13;;;;;;;2.72;2.53;;;19.60;97.20;;;;;;1741051;28;20442;-66
2022/07/03 05:10:06;;;;;;;2.40;2.20;;;19.70;97.20;;;;;;1741058;28;20199;-65
2022/07/03 05:10:57;;;;;;;2.40;2.20;;;19.70;97.20;;;;;;1741020;28;20441;-66
2022/07/03 05:11:49;;;;;;;2.42;2.28;;;19.70;97.20;;;;;;1740859;28;20668;-66
2022/07/03 05:12:39;;;;;;;3.00;2.70;;;19.70;97.20;;;;;;1741062;28;20203;-66
2022/07/03 05:13:31;;;;;;;3.47;2.00;;;19.80;97.20;;;;;;1741018;28;20227;-66
2022/07/03 05:14:22;;;;;;;2.42;2.22;;;19.80;97.20;;;;;;1741021;28;20199;-66
2022/07/03 05:15:13;;;;;;;2.70;2.10;;;19.80;97.20;;;;;;1741026;28;20286;-66
2022/07/03 05:16:06;;;;;;;4.03;2.00;;;19.80;97.20;;;;;;1741043;28;20221;-66
2022/07/03 05:16:57;;;;;;;3.58;1.88;;;19.80;97.20;;;;;;1740777;28;20301;-66
2022/07/03 05:17:48;;;;;;;2.33;2.13;;;19.80;97.20;;;;;;1741053;28;20206;-65
2022/07/03 05:18:40;;;;;;;2.50;2.30;;;19.80;97.20;;;;;;1741060;28;20274;-66
2022/07/03 05:19:30;;;;;;;2.95;2.22;;;19.80;97.20;;;;;;1741012;28;20218;-66
2022/07/03 05:20:24;;;;;;;4.17;2.20;;;19.90;97.20;;;;;;1741085;28;20294;-66
2022/07/03 05:21:16;;;;;;;2.50;2.30;;;19.90;97.20;;;;;;1740769;28;20654;-66
2022/07/03 05:22:07;;;;;;;2.10;2.00;;;19.90;97.20;;;;;;1740969;28;20218;-66
2022/07/03 05:23:01;;;;;;;3.10;2.10;;;19.90;97.20;;;;;;1740986;28;20285;-66
2022/07/03 05:23:51;;;;;;;2.10;1.90;;;19.90;97.20;;;;;;1741056;28;20214;-66
2022/07/03 05:24:43;;;;;;;2.07;1.93;;;19.90;97.20;;;;;;1740976;28;20223;-66
2022/07/03 05:25:34;;;;;;;4.68;2.00;;;19.90;97.20;;;;;;1741014;28;20206;-67
2022/07/03 05:26:26;;;;;;;2.60;2.40;;;19.90;97.20;;;;;;1740945;28;20282;-66
2022/07/03 05:27:16;;;;;;;2.00;1.90;;;20.00;97.20;;;;;;1740742;28;20210;-66
2022/07/03 05:28:09;;;;;;;2.00;1.70;;;20.00;97.20;;;;;;1740978;28;20283;-66
2022/07/03 05:29:00;;;;;;;2.28;2.00;;;20.00;97.20;;;;;;1741021;28;20218;-66
2022/07/03 05:29:51;;;;;;;2.90;2.30;;;20.00;97.20;;;;;;1740977;28;20278;-66
2022/07/03 05:30:43;;;;;;;2.40;2.20;;;20.00;97.20;;;;;;1741035;28;20199;-66
2022/07/03 05:31:36;;;;;;;2.58;2.22;;;20.00;97.20;;;;;;1740758;28;20206;-66
2022/07/03 05:32:27;;;;;;;2.28;2.08;;;20.10;97.20;;;;;;1741062;28;20221;-65
2022/07/03 05:33:19;;;;;;;2.10;2.00;;;20.10;97.20;;;;;;1741011;28;20207;-66
2022/07/03 05:34:10;;;;;;;3.40;2.10;;;20.10;97.20;;;;;;1741032;28;20210;-66
2022/07/03 05:35:02;;;;;;;2.40;2.20;;;20.10;97.20;;;;;;1741019;28;20191;-66
2022/07/03 05:35:54;;;;;;;2.22;2.05;;;20.10;97.20;;;;;;1740990;28;20658;-65
2022/07/03 05:36:46;;;;;;;2.15;2.05;;;20.20;97.20;;;;;;1740614;28;20222;-66
2022/07/03 05:37:37;;;;;;;2.10;2.00;;;20.20;97.20;;;;;;1740971;28;20202;-66
2022/07/03 05:39:38;;;;;;;3.35;2.00;;;20.20;97.20;;;;;;1741035;28;20234;-66
2022/07/03 05:40:29;;;;;;;2.22;2.00;;;20.20;97.20;;;;;;1741089;28;20483;-66
2022/07/03 05:41:20;;;;;;;2.50;2.30;;;20.20;97.20;;;;;;1740712;28;20290;-66
2022/07/03 05:42:11;;;;;;;2.33;2.13;;;20.30;97.20;;;;;;1740940;28;20222;-66
2022/07/03 05:43:03;;;;;;;2.50;2.30;;;20.30;97.20;;;;;;1740976;28;20282;-66
2022/07/03 05:43:54;;;;;;;2.30;2.10;;;20.30;97.20;;;;;;1741273;28;20195;-66
2022/07/03 05:44:45;;;;;;;2.33;1.87;;;20.30;97.20;;;;;;1742425;28;20234;-66
2022/07/03 05:45:37;;;;;;;4.75;1.90;;;20.30;97.20;;;;;;1742319;28;20662;-66
2022/07/03 05:46:28;;;;;;;2.35;2.15;;;20.30;97.20;;;;;;1742288;28;20191;-66
2022/07/03 05:47:21;;;;;;;3.65;1.83;;;20.30;97.20;;;;;;1742111;28;20206;-66
2022/07/03 05:48:12;;;;;;;2.40;1.90;;;20.30;97.20;;;;;;1742253;28;20260;-66
2022/07/03 05:49:03;;;;;;;2.53;2.33;;;20.30;97.20;;;;;;1742329;28;20207;-66
2022/07/03 05:49:55;;;;;;;2.60;2.40;;;20.40;97.20;;;;;;1742250;28;20287;-66
2022/07/03 05:50:46;;;;;;;2.25;2.10;;;20.40;97.20;;;;;;1742413;28;20199;-67
2022/07/03 05:51:38;;;;;;;2.27;2.07;;;20.40;97.20;;;;;;1742090;28;20705;-67
2022/07/03 05:52:28;;;;;;;2.10;1.90;;;20.40;97.20;;;;;;1742351;28;20468;-67
2022/07/03 05:53:20;;;;;;;2.47;2.10;;;20.50;97.20;;;;;;1742264;28;20299;-66
2022/07/03 05:54:11;;;;;;;1.90;1.80;;;20.50;97.20;;;;;;1742250;28;20577;-66
2022/07/03 05:55:03;;;;;;;2.20;2.10;;;20.50;97.20;;;;;;1742388;28;20221;-66
2022/07/03 05:55:54;;;;;;;2.03;1.92;;;20.50;97.20;;;;;;1742217;28;20445;-66
2022/07/03 05:56:45;;;;;;;2.57;1.90;;;20.60;97.20;;;;;;1741933;28;20225;-66
2022/07/03 05:57:36;;;;;;;2.38;2.17;;;20.60;97.20;;;;;;1742191;28;20202;-65
2022/07/03 05:58:28;;;;;;;2.30;2.10;;;20.60;97.20;;;;;;1742364;28;20294;-66
2022/07/03 05:59:19;;;;;;;2.85;1.98;;;20.60;97.20;;;;;;1742271;28;20441;-66
2022/07/03 06:00:12;;;;;;;2.00;1.90;;;20.70;97.20;;;;;;1742294;28;20286;-67
2022/07/03 06:01:03;;;;;;;2.38;2.17;;;20.70;97.20;;;;;;1742220;28;20199;-66
2022/07/03 06:01:54;;;;;;;2.77;1.80;;;20.70;97.20;;;;;;1741968;28;20279;-67
2022/07/03 06:02:46;;;;;;;2.50;1.90;;;20.70;97.20;;;;;;1742362;28;20195;-66
2022/07/03 06:03:38;;;;;;;2.40;2.20;;;20.70;97.20;;;;;;1742348;28;20230;-67
2022/07/03 06:04:29;;;;;;;6.05;2.45;;;20.80;97.20;;;;;;1742350;28;20215;-67
2022/07/03 06:05:21;;;;;;;1.80;1.70;;;20.80;97.20;;;;;;1742266;28;20198;-65
2022/07/03 06:06:11;;;;;;;2.03;1.92;;;20.80;97.20;;;;;;1742058;28;20226;-67
2022/07/03 06:07:03;;;;;;;2.33;2.13;;;20.80;97.20;;;;;;1742044;28;20254;-66
2022/07/03 06:07:54;;;;;;;2.70;2.05;;;20.90;97.20;;;;;;1742065;28;20206;-66
2022/07/03 06:08:46;;;;;;;2.17;2.00;;;20.90;97.20;;;;;;1742247;28;20195;-66
2022/07/03 06:09:37;;;;;;;2.15;1.92;;;20.90;97.20;;;;;;1742136;28;20218;-67
2022/07/03 06:10:29;;;;;;;1.97;1.87;;;20.90;97.20;;;;;;1742330;28;20314;-66
2022/07/03 06:11:21;;;;;;;2.03;1.80;;;20.90;97.20;;;;;;1741933;28;20662;-66
2022/07/03 06:12:12;;;;;;;2.15;2.05;;;21.00;97.20;;;;;;1742199;28;20257;-66
2022/07/03 06:13:03;;;;;;;2.22;2.08;;;21.00;97.20;;;;;;1742179;28;20217;-66
2022/07/03 06:13:55;;;;;;;2.27;2.07;;;21.00;97.20;;;;;;1742198;28;20287;-66
2022/07/03 06:14:46;;;;;;;2.03;1.83;;;21.10;97.20;;;;;;1742150;28;20206;-66
2022/07/03 06:15:38;;;;;;;1.90;1.80;;;21.10;97.20;;;;;;1742179;28;20282;-66
2022/07/03 06:16:28;;;;;;;2.88;1.60;;;21.10;97.20;;;;;;1742145;28;20658;-66
2022/07/03 06:17:20;;;;;;;1.93;1.73;;;21.10;97.20;;;;;;1741904;28;20609;-66
2022/07/03 06:18:12;;;;;;;1.85;1.75;;;21.20;97.20;;;;;;1742232;28;20210;-66
2022/07/03 06:19:04;;;;;;;1.80;1.60;;;21.20;97.20;;;;;;1742161;28;20203;-66
2022/07/03 06:19:55;;;;;;;1.83;1.73;;;21.20;97.20;;;;;;1742267;28;20646;-66
2022/07/03 06:20:47;;;;;;;2.20;1.70;;;21.20;97.20;;;;;;1742237;28;20609;-66
2022/07/03 06:21:37;;;;;;;2.22;2.03;;;21.30;97.20;;;;;;1741832;28;20450;-66
2022/07/03 06:22:29;;;;;;;2.10;1.93;;;21.30;97.20;;;;;;1742078;28;20225;-65
2022/07/03 06:23:20;;;;;;;2.95;2.30;;;21.30;97.20;;;;;;1742095;28;20468;-66
2022/07/03 06:24:12;;;;;;;2.40;2.10;;;21.30;97.20;;;;;;1742153;28;20199;-66
2022/07/03 06:25:03;;;;;;;3.60;1.85;;;21.30;97.20;;;;;;1742215;28;20255;-66
2022/07/03 06:25:55;;;;;;;1.75;1.60;;;21.40;97.20;;;;;;1742015;28;20210;-66
2022/07/03 06:26:46;;;;;;;1.90;1.80;;;21.40;97.20;;;;;;1741808;28;20230;-66
2022/07/03 06:27:37;;;;;;;1.70;1.60;;;21.40;97.20;;;;;;1742090;28;20205;-65
2022/07/03 06:28:28;;;;;;;8.07;2.00;;;21.50;97.20;;;;;;1742042;28;20590;-65
2022/07/03 06:29:20;;;;;;;2.70;2.03;;;21.50;97.20;;;;;;1742099;28;20310;-66
2022/07/03 06:30:11;;;;;;;2.63;2.00;;;21.50;97.20;;;;;;1742020;28;20203;-67
2022/07/03 06:31:03;;;;;;;2.50;1.50;;;21.50;97.20;;;;;;1742081;28;20220;-67
2022/07/03 06:31:54;;;;;;;2.22;2.00;;;21.50;97.20;;;;;;1741739;28;20195;-67
2022/07/03 06:32:46;;;;;;;1.90;1.80;;;21.50;97.20;;;;;;1742111;28;20223;-66
2022/07/03 06:33:38;;;;;;;2.05;1.95;;;21.60;97.20;;;;;;1742042;28;20835;-67
2022/07/03 06:34:29;;;;;;;2.00;1.90;;;21.60;97.20;;;;;;1742104;28;20199;-66
2022/07/03 06:35:20;;;;;;;2.30;2.10;;;21.60;97.20;;;;;;1742182;28;20214;-67
2022/07/03 06:36:12;;;;;;;2.23;1.90;;;21.60;97.20;;;;;;1741904;28;20286;-67
2022/07/03 06:37:03;;;;;;;1.75;1.58;;;21.70;97.20;;;;;;1741835;28;20203;-66
2022/07/03 06:37:55;;;;;;;2.05;1.80;;;21.70;97.20;;;;;;1741998;28;20201;-67
2022/07/03 06:38:46;;;;;;;3.60;2.15;;;21.70;97.20;;;;;;1742032;28;20203;-67
2022/07/03 06:39:38;;;;;;;4.50;2.03;;;21.70;97.20;;;;;;1742011;28;20750;-67
2022/07/03 06:40:28;;;;;;;2.10;1.70;;;21.80;97.20;;;;;;1742059;28;20199;-66
2022/07/03 06:41:20;;;;;;;2.70;1.83;;;21.80;97.20;;;;;;1741799;28;20235;-67
2022/07/03 06:42:11;;;;;;;1.75;1.60;;;21.80;97.20;;;;;;1738192;28;20206;-66
2022/07/03 06:43:03;;;;;;;1.83;1.73;;;21.80;97.20;;;;;;1741937;28;20309;-66
2022/07/03 06:43:53;;;;;;;2.30;2.10;;;21.80;97.20;;;;;;1741718;28;20202;-66
2022/07/03 06:44:45;;;;;;;1.97;1.87;;;21.90;97.20;;;;;;1741995;28;20278;-67
2022/07/03 06:45:36;;;;;;;2.03;1.65;;;21.90;97.20;;;;;;1741967;28;20306;-67
2022/07/03 06:46:28;;;;;;;1.80;1.70;;;21.90;97.20;;;;;;1741895;28;20202;-66
2022/07/03 06:47:18;;;;;;;2.00;1.90;;;21.90;97.20;;;;;;1741772;28;20206;-67
2022/07/03 06:48:10;;;;;;;1.67;1.57;;;22.00;97.20;;;;;;1742064;28;20289;-66
2022/07/03 06:49:02;;;;;;;2.08;1.88;;;22.00;97.20;;;;;;1741976;28;20203;-66
2022/07/03 06:49:54;;;;;;;2.35;2.15;;;22.00;97.20;;;;;;1742001;28;20200;-65
2022/07/03 06:50:45;;;;;;;1.90;1.80;;;22.00;97.20;;;;;;1741907;28;20218;-67
2022/07/03 06:51:37;;;;;;;2.75;1.70;;;22.10;97.20;;;;;;1741941;28;20192;-67
2022/07/03 06:52:28;;;;;;;1.70;1.60;;;22.10;97.20;;;;;;1741931;28;20253;-66
2022/07/03 06:53:20;;;;;;;1.70;1.60;;;22.10;97.20;;;;;;1741924;28;20199;-67
2022/07/03 06:54:10;;;;;;;2.10;1.63;;;22.10;97.20;;;;;;1741655;28;20662;-67
2022/07/03 06:55:02;;;;;;;2.23;2.00;;;22.10;97.20;;;;;;1741928;28;20643;-66
2022/07/03 06:55:53;;;;;;;2.95;2.22;;;22.10;97.20;;;;;;1741055;28;20579;-66
2022/07/03 06:56:45;;;;;;;2.23;2.03;;;22.20;97.20;;;;;;1741585;28;20301;-67
2022/07/03 06:57:35;;;;;;;2.00;1.90;;;22.20;97.20;;;;;;1741982;28;20199;-66
2022/07/03 06:58:27;;;;;;;3.53;1.80;;;22.20;97.20;;;;;;1741893;28;20278;-67
2022/07/03 06:59:18;;;;;;;1.77;1.67;;;22.20;97.20;;;;;;1741882;28;20220;-67
2022/07/03 07:00:11;;;;;;;1.50;1.40;;;22.20;97.20;;;;;;1741652;28;20290;-66
2022/07/03 07:01:02;;;;;;;2.40;1.80;;;22.30;97.20;;;;;;1742033;28;20210;-69
2022/07/03 07:01:54;;;;;;;1.93;1.83;;;22.30;97.20;;;;;;1742049;28;20274;-68
2022/07/03 07:02:44;;;;;;;2.85;1.90;;;22.30;97.20;;;;;;1741850;28;20249;-66
2022/07/03 07:03:36;;;;;;;2.17;1.40;;;22.30;97.20;;;;;;1741908;28;20290;-67
2022/07/03 07:04:28;;;;;;;1.60;1.50;;;22.30;97.20;;;;;;1741917;28;20210;-66
2022/07/03 07:05:20;;;;;;;2.35;1.90;;;22.40;97.20;;;;;;1741845;28;20203;-66
2022/07/03 07:06:11;;;;;;;1.90;1.80;;;22.40;97.20;;;;;;1741767;28;20203;-66
2022/07/03 07:07:03;;;;;;;1.60;1.50;;;22.40;97.20;;;;;;1741481;28;20260;-66
2022/07/03 07:07:54;;;;;;;1.92;1.65;;;22.40;97.20;;;;;;1741687;28;20206;-66
2022/07/03 07:08:45;;;;;;;1.73;1.63;;;22.50;97.20;;;;;;1741953;28;20201;-66
2022/07/03 07:09:36;;;;;;;1.92;1.70;;;22.50;97.20;;;;;;1741846;28;20195;-66
2022/07/03 07:10:28;;;;;;;1.90;1.60;;;22.50;97.20;;;;;;1741638;28;20199;-66
2022/07/03 07:11:19;;;;;;;2.20;1.75;;;22.60;97.20;;;;;;1741771;28;20203;-66
2022/07/03 07:12:11;;;;;;;1.60;1.50;;;22.60;97.20;;;;;;1741885;28;20203;-66
2022/07/03 07:13:02;;;;;;;1.70;1.60;;;22.60;97.20;;;;;;1741784;28;20214;-66
2022/07/03 07:13:54;;;;;;;1.40;1.30;;;22.70;97.20;;;;;;1741765;28;20286;-66
2022/07/03 07:14:44;;;;;;;1.85;1.65;;;22.70;97.20;;;;;;1741769;28;20206;-66
2022/07/03 07:15:36;;;;;;;1.43;1.33;;;22.70;97.20;;;;;;1741801;28;20282;-67
2022/07/03 07:16:29;;;;;;;6.18;1.60;;;22.70;97.20;;;;;;1741682;28;20203;-66
2022/07/03 07:17:20;;;;;;;1.92;1.40;;;22.80;97.20;;;;;;1741527;28;20203;-66
2022/07/03 07:18:11;;;;;;;2.72;1.80;;;22.80;97.20;;;;;;1741749;28;20230;-66
2022/07/03 07:19:03;;;;;;;1.50;1.40;;;22.90;97.20;;;;;;1741808;28;20234;-66
2022/07/03 07:19:56;;;;;;;1.73;1.63;;;22.90;97.20;;;;;;1741843;28;20210;-67
2022/07/03 07:20:48;;;;;;;2.20;1.65;;;22.90;97.20;;;;;;1741432;28;20206;-66
2022/07/03 07:21:38;;;;;;;2.03;1.38;;;22.90;97.20;;;;;;1741734;28;20206;-66
2022/07/03 07:22:30;;;;;;;3.20;1.37;;;22.90;97.20;;;;;;1741823;28;20234;-67
2022/07/03 07:23:21;;;;;;;3.00;1.90;;;23.00;97.20;;;;;;1741739;28;20208;-66
2022/07/03 07:24:13;;;;;;;3.13;1.50;;;23.00;97.20;;;;;;1741771;28;20278;-66
2022/07/03 07:25:05;;;;;;;1.55;1.45;;;23.00;97.20;;;;;;1741666;28;20206;-66
2022/07/03 07:25:56;;;;;;;2.28;1.30;;;23.00;97.20;;;;;;1741598;28;20669;-66
2022/07/03 07:26:47;;;;;;;1.95;1.65;;;23.00;97.20;;;;;;1741336;28;20219;-66
2022/07/03 07:27:39;;;;;;;2.47;1.60;;;23.10;97.20;;;;;;1741774;28;20286;-66
2022/07/03 07:28:31;;;;;;;1.70;1.60;;;23.10;97.20;;;;;;1741751;28;20623;-66
2022/07/03 07:29:23;;;;;;;3.08;1.67;;;23.10;97.20;;;;;;1741658;28;20334;-67
2022/07/03 07:30:14;;;;;;;1.58;1.48;;;23.10;97.20;;;;;;1741533;28;20203;-66
2022/07/03 07:31:05;;;;;;;1.77;1.60;;;23.10;97.20;;;;;;1741530;28;20674;-66
2022/07/03 07:31:56;;;;;;;2.10;1.42;;;23.20;97.20;;;;;;1741587;28;20556;-66
2022/07/03 07:32:48;;;;;;;1.40;1.30;;;23.20;97.20;;;;;;1741789;28;20329;-66
2022/07/03 07:33:39;;;;;;;1.45;1.30;;;23.20;97.20;;;;;;1741726;28;20200;-66
2022/07/03 07:34:30;;;;;;;1.40;1.30;;;23.20;97.20;;;;;;1741722;28;20203;-66
2022/07/03 07:35:22;;;;;;;1.65;1.25;;;23.20;97.20;;;;;;1741669;28;20214;-65
2022/07/03 07:36:14;;;;;;;2.22;1.48;;;23.20;97.20;;;;;;1741364;28;20207;-66
2022/07/03 07:37:06;;;;;;;3.42;1.30;;;23.30;97.20;;;;;;1741471;28;20685;-66
2022/07/03 07:37:57;;;;;;;1.20;1.10;;;23.30;97.20;;;;;;1741566;28;20202;-67
2022/07/03 07:38:48;;;;;;;1.63;1.20;;;23.30;97.20;;;;;;1741674;28;20199;-66
2022/07/03 07:39:40;;;;;;;1.40;1.20;;;23.30;97.20;;;;;;1741870;28;20226;-66
2022/07/03 07:40:31;;;;;;;1.30;1.20;;;23.30;97.20;;;;;;1741760;28;20203;-66
2022/07/03 07:41:22;;;;;;;1.30;1.03;;;23.30;97.20;;;;;;1741634;28;20210;-66
2022/07/03 07:42:13;;;;;;;1.10;1.00;;;23.30;97.20;;;;;;1741687;28;20210;-66
2022/07/03 07:43:05;;;;;;;1.70;1.33;;;23.40;97.20;;;;;;1741577;28;20217;-66
2022/07/03 07:43:56;;;;;;;1.80;1.40;;;23.40;97.20;;;;;;1741521;28;20203;-66
2022/07/03 07:44:48;;;;;;;1.77;1.42;;;23.40;97.20;;;;;;1741681;28;20257;-66
2022/07/03 07:45:39;;;;;;;1.25;1.15;;;23.50;97.20;;;;;;1741609;28;20203;-66
2022/07/03 07:46:31;;;;;;;1.35;1.25;;;23.50;97.20;;;;;;1741470;28;20199;-66
2022/07/03 07:47:22;;;;;;;1.20;1.10;;;23.50;97.20;;;;;;1741658;28;20218;-66
2022/07/03 07:48:14;;;;;;;1.30;1.20;;;23.50;97.20;;;;;;1741603;28;20298;-65
2022/07/03 07:49:04;;;;;;;1.20;1.00;;;23.60;97.20;;;;;;1741826;28;20199;-66
2022/07/03 07:49:56;;;;;;;1.50;1.10;;;23.60;97.20;;;;;;1741705;28;20286;-66
2022/07/03 07:50:49;;;;;;;1.67;0.90;;;23.60;97.20;;;;;;1741368;28;20779;-66
2022/07/03 07:51:41;;;;;;;2.08;1.30;;;23.60;97.20;;;;;;1741711;28;20199;-66
2022/07/03 07:52:32;;;;;;;1.48;1.10;;;23.60;97.20;;;;;;1741634;28;20211;-66
2022/07/03 07:53:23;;;;;;;1.87;1.10;;;23.70;97.20;;;;;;1741608;28;20274;-67
2022/07/03 07:54:14;;;;;;;9.75;1.27;;;23.70;97.20;;;;;;1741544;28;20211;-66
2022/07/03 07:55:07;;;;;;;1.97;1.10;;;23.70;97.20;;;;;;1741572;28;20741;-66
2022/07/03 07:55:58;;;;;;;1.38;1.27;;;23.70;97.20;;;;;;1741483;28;20207;-66
2022/07/03 07:56:50;;;;;;;1.73;1.30;;;23.70;97.20;;;;;;1741317;28;20299;-66
2022/07/03 07:57:41;;;;;;;1.50;1.40;;;23.80;97.20;;;;;;1741557;28;20203;-67
2022/07/03 07:58:33;;;;;;;3.15;1.40;;;23.80;97.20;;;;;;1741476;28;20269;-67
2022/07/03 07:59:24;;;;;;;1.25;1.15;;;23.80;97.20;;;;;;1741535;28;20207;-66
2022/07/03 08:00:18;;;;;;;1.73;1.03;;;23.80;97.20;;;;;;1741508;28;20293;-66
2022/07/03 08:05:48;;;;;;;1.48;1.20;;;23.90;97.20;;;;;;1739967;28;20252;-66
2022/07/03 08:06:39;;;;;;;1.33;1.20;;;23.90;97.20;;;;;;1741128;28;20725;-66
2022/07/03 08:07:31;;;;;;;1.30;1.10;;;23.90;97.20;;;;;;1741514;28;20642;-66
2022/07/03 08:08:21;;;;;;;2.80;1.40;;;24.00;97.20;;;;;;1741444;28;20207;-66
2022/07/03 08:09:14;;;;;;;1.87;1.10;;;24.00;97.20;;;;;;1741471;28;20294;-66
2022/07/03 08:10:06;;;;;;;1.23;1.00;;;24.00;97.20;;;;;;1740857;28;20212;-66
2022/07/03 08:10:57;;;;;;;1.48;1.38;;;24.10;97.20;;;;;;1741137;28;20191;-66
2022/07/03 08:11:48;;;;;;;2.28;1.40;;;24.10;97.20;;;;;;1741449;28;20204;-66
2022/07/03 08:12:40;;;;;;;1.40;1.00;;;24.10;97.20;;;;;;1741511;28;20191;-67
2022/07/03 08:13:31;;;;;;;2.53;1.00;;;24.10;97.20;;;;;;1741448;28;20207;-66
2022/07/03 08:14:23;;;;;;;1.67;1.37;;;24.10;97.20;;;;;;1741479;28;20207;-67
2022/07/03 08:15:13;;;;;;;1.25;1.15;;;24.10;97.20;;;;;;1741419;28;20814;-67
2022/07/03 08:16:06;;;;;;;1.43;1.33;;;24.20;97.20;;;;;;1741326;28;20290;-66
2022/07/03 08:16:57;;;;;;;1.73;1.30;;;24.20;97.20;;;;;;1741060;28;20219;-67
2022/07/03 08:17:49;;;;;;;1.30;1.20;;;24.20;97.20;;;;;;1741390;28;20195;-66
2022/07/03 08:18:39;;;;;;;2.45;1.20;;;24.20;97.20;;;;;;1741421;28;20199;-67
2022/07/03 08:19:31;;;;;;;4.30;1.33;;;24.20;97.20;;;;;;1741464;28;20199;-67
2022/07/03 08:20:22;;;;;;;1.45;1.17;;;24.20;97.20;;;;;;1741182;28;20199;-66
2022/07/03 08:21:15;;;;;;;2.57;1.20;;;24.30;97.20;;;;;;1741236;28;20203;-66
2022/07/03 08:22:06;;;;;;;1.27;1.10;;;24.30;97.20;;;;;;1741376;28;20461;-66
2022/07/03 08:22:58;;;;;;;1.30;1.00;;;24.30;97.20;;;;;;1741252;28;20274;-66
2022/07/03 08:23:49;;;;;;;1.38;1.20;;;24.30;97.20;;;;;;1741412;28;20569;-67
2022/07/03 08:24:41;;;;;;;1.40;1.30;;;24.30;97.20;;;;;;1741391;28;20282;-67
2022/07/03 08:25:32;;;;;;;1.98;1.20;;;24.40;97.20;;;;;;1741417;28;20446;-66
2022/07/03 08:26:24;;;;;;;1.27;0.98;;;24.40;97.20;;;;;;1741187;28;20198;-67
2022/07/03 08:27:14;;;;;;;1.30;1.20;;;24.40;97.20;;;;;;1741044;28;20233;-66
2022/07/03 08:28:06;;;;;;;2.87;1.30;;;24.40;97.20;;;;;;1741307;28;20385;-67
2022/07/03 08:28:57;;;;;;;1.50;0.98;;;24.40;97.20;;;;;;1741252;28;20210;-66
2022/07/03 08:29:49;;;;;;;1.83;1.00;;;24.40;97.20;;;;;;1741332;28;20282;-66
2022/07/03 08:30:40;;;;;;;1.27;1.17;;;24.40;97.20;;;;;;1741059;28;20203;-67
2022/07/03 08:31:31;;;;;;;1.57;1.33;;;24.40;97.20;;;;;;1741354;28;20273;-65
2022/07/03 08:32:22;;;;;;;2.85;1.10;;;24.50;97.20;;;;;;1741260;28;20212;-67
2022/07/03 08:33:14;;;;;;;1.93;1.37;;;24.50;97.20;;;;;;1741325;28;20309;-66
2022/07/03 08:34:05;;;;;;;1.83;1.20;;;24.50;97.20;;;;;;1741339;28;20442;-66
2022/07/03 08:34:57;;;;;;;1.53;1.13;;;24.50;97.20;;;;;;1741222;28;20710;-66
2022/07/03 08:35:48;;;;;;;1.90;1.10;;;24.60;97.20;;;;;;1741235;28;20200;-66
2022/07/03 08:36:42;;;;;;;1.92;1.23;;;24.60;97.20;;;;;;1740260;28;20241;-66
2022/07/03 08:37:33;;;;;;;2.08;1.20;;;24.70;97.20;;;;;;1741275;28;20203;-66
2022/07/03 08:38:30;;;;;;;1.27;1.10;;;24.70;97.20;;;;;;1741199;28;20283;-66
2022/07/03 08:39:21;;;;;;;3.75;1.02;;;24.70;97.20;;;;;;1741265;28;20719;-66
2022/07/03 08:40:14;;;;;;;7.10;1.27;;;24.80;97.20;;;;;;1741328;28;20724;-66
2022/07/03 08:41:06;;;;;;;1.73;1.45;;;24.80;97.20;;;;;;1740942;28;20199;-67
2022/07/03 08:41:59;;;;;;;1.70;1.50;;;24.80;97.20;;;;;;1741184;28;20187;-65
2022/07/03 08:42:53;;;;;;;1.42;1.30;;;24.90;97.20;;;;;;1741036;28;20624;-66
2022/07/03 08:43:45;;;;;;;3.58;1.17;;;24.90;97.20;;;;;;1741198;28;20716;-66
2022/07/03 08:44:37;;;;;;;1.90;1.40;;;24.90;97.20;;;;;;1733741;28;20199;-66
2022/07/03 08:45:30;;;;;;;1.33;1.23;;;24.90;97.20;;;;;;1733832;28;20270;-67
2022/07/03 08:46:21;;;;;;;1.85;1.10;;;24.90;97.20;;;;;;1738597;28;20203;-66
2022/07/03 08:47:16;;;;;;;2.85;1.00;;;24.90;97.20;;;;;;1740964;28;20195;-66
2022/07/03 08:48:07;;;;;;;1.67;1.20;;;25.00;97.20;;;;;;1741154;28;20206;-66
2022/07/03 08:49:00;;;;;;;1.30;1.10;;;25.00;97.20;;;;;;1741183;28;20563;-66
2022/07/03 08:49:53;;;;;;;1.20;1.10;;;25.00;97.20;;;;;;1741170;28;20722;-68
2022/07/03 08:50:46;;;;;;;3.20;1.20;;;25.00;97.20;;;;;;1740804;28;20223;-66
2022/07/03 08:51:37;;;;;;;1.75;1.38;;;25.00;97.20;;;;;;1741186;28;20219;-66
2022/07/03 08:52:32;;;;;;;1.55;1.30;;;25.00;97.20;;;;;;1741196;28;20545;-67
2022/07/03 08:53:24;;;;;;;1.27;1.00;;;25.00;97.20;;;;;;1741161;28;20198;-67
2022/07/03 08:54:15;;;;;;;1.13;1.02;;;25.00;97.20;;;;;;1741133;28;20299;-66
2022/07/03 08:55:07;;;;;;;1.65;1.10;;;25.10;97.20;;;;;;1730604;28;20596;-66
2022/07/03 08:56:03;;;;;;;1.40;1.30;;;25.10;97.20;;;;;;1740404;28;20253;-67
2022/07/03 08:56:54;;;;;;;1.45;1.15;;;25.10;97.20;;;;;;1740608;28;20280;-66
2022/07/03 08:57:47;;;;;;;1.33;1.23;;;25.20;97.20;;;;;;1739974;28;20195;-66
2022/07/03 08:58:39;;;;;;;1.00;0.90;;;25.20;97.20;;;;;;1739897;28;20203;-66
2022/07/03 08:59:36;;;;;;;1.80;1.10;;;25.20;97.20;;;;;;1734129;28;20206;-65
2022/07/03 09:00:28;;;;;;;1.85;1.13;;;25.30;97.20;;;;;;1733643;28;20449;-65
2022/07/03 09:01:21;;;;;;;2.38;1.15;;;25.30;97.20;;;;;;1737630;28;20581;-66
2022/07/03 09:02:13;;;;;;;1.17;1.08;;;25.30;97.20;;;;;;1733951;28;20579;-66
2022/07/03 09:03:11;;;;;;;1.17;1.00;;;25.30;97.20;;;;;;1734269;28;20196;-66
2022/07/03 09:04:03;;;;;;;1.20;1.10;;;25.40;97.20;;;;;;1734343;28;20262;-66
2022/07/03 09:04:56;;;;;;;1.73;1.02;;;25.40;97.20;;;;;;1738525;28;20201;-66
2022/07/03 09:05:48;;;;;;;1.40;1.30;;;25.40;97.20;;;;;;1738358;28;20214;-66
2022/07/03 09:06:41;;;;;;;1.00;0.90;;;25.40;97.20;;;;;;1740600;28;20215;-66
2022/07/03 09:07:35;;;;;;;1.75;1.40;;;25.50;97.20;;;;;;1740830;28;20202;-66
2022/07/03 09:08:31;;;;;;;2.65;1.20;;;25.50;97.20;;;;;;1734123;28;20273;-66
2022/07/03 09:09:22;;;;;;;1.20;1.10;;;25.50;97.20;;;;;;1734375;28;20204;-67
2022/07/03 09:10:16;;;;;;;1.00;0.90;;;25.50;97.20;;;;;;1734159;28;20278;-66
2022/07/03 09:11:07;;;;;;;2.55;1.23;;;25.60;97.20;;;;;;1738471;28;20199;-66
2022/07/03 09:12:00;;;;;;;1.73;1.20;;;25.60;97.20;;;;;;1741126;28;20230;-65
2022/07/03 09:12:50;;;;;;;1.45;1.02;;;25.60;97.20;;;;;;1741189;28;20203;-65
2022/07/03 09:13:42;;;;;;;2.10;1.20;;;25.60;97.20;;;;;;1737562;28;20215;-67
2022/07/03 09:14:33;;;;;;;1.60;1.20;;;25.70;97.20;;;;;;1734161;28;20465;-66
2022/07/03 09:15:25;;;;;;;1.47;1.10;;;25.70;97.20;;;;;;1734269;28;20231;-67
2022/07/03 09:16:16;;;;;;;1.25;1.15;;;25.70;97.20;;;;;;1734003;28;20207;-66
2022/07/03 09:17:08;;;;;;;1.75;1.20;;;25.80;97.20;;;;;;1733951;28;20677;-66
2022/07/03 09:18:00;;;;;;;1.42;1.00;;;25.80;97.20;;;;;;1734072;28;20249;-66
2022/07/03 09:18:52;;;;;;;1.10;1.00;;;25.80;97.20;;;;;;1733756;28;20227;-66
2022/07/03 09:19:45;;;;;;;1.20;1.10;;;25.90;97.20;;;;;;1734282;28;20203;-66
2022/07/03 09:20:38;;;;;;;2.08;1.25;;;25.80;97.20;;;;;;1734082;28;20196;-66
2022/07/03 09:21:36;;;;;;;1.48;1.08;;;25.90;97.20;;;;;;1740491;28;20195;-66
2022/07/03 09:22:29;;;;;;;1.30;1.10;;;25.90;97.20;;;;;;1741098;28;20203;-66
2022/07/03 09:23:21;;;;;;;1.15;0.90;;;25.90;97.20;;;;;;1740914;28;20199;-67
2022/07/03 09:24:13;;;;;;;1.63;1.20;;;26.00;97.20;;;;;;1741020;28;20286;-65
2022/07/03 09:25:06;;;;;;;2.95;1.00;;;26.00;97.20;;;;;;1741070;28;20207;-67
2022/07/03 09:25:59;;;;;;;1.10;1.00;;;26.00;97.20;;;;;;1740972;28;20241;-66
2022/07/03 09:26:52;;;;;;;1.70;0.77;;;26.10;97.20;;;;;;1740698;28;20245;-66
2022/07/03 09:27:51;;;;;;;1.58;0.90;;;26.10;97.20;;;;;;1740918;28;20215;-66
2022/07/03 09:28:47;;;;;;;2.05;1.10;;;26.10;97.20;;;;;;1741057;28;20203;-67
2022/07/03 09:29:51;;;;;;;1.30;0.95;;;26.10;97.20;;;;;;1740992;28;20237;-66
2022/07/03 09:30:56;;;;;;;2.75;0.90;;;26.20;97.20;;;;;;1740835;28;20425;-66
2022/07/03 09:31:55;;;;;;;1.17;1.05;;;26.20;97.20;;;;;;1734156;28;20270;-66
2022/07/03 09:32:48;;;;;;;1.15;0.60;;;26.20;97.20;;;;;;1734228;28;20231;-66
2022/07/03 09:33:51;;;;;;;0.98;0.80;;;26.20;97.20;;;;;;1734083;28;20290;-65
2022/07/03 09:34:43;;;;;;;1.67;1.00;;;26.30;97.20;;;;;;1734235;28;20689;-67
2022/07/03 09:35:34;;;;;;;0.80;0.70;;;26.30;97.20;;;;;;1734040;28;20195;-66
2022/07/03 09:36:41;;;;;;;1.20;1.00;;;26.30;97.20;;;;;;1733918;28;20231;-66